Airport View

Enter AWOS ICAO identifier for current METAR.

ex. KFNL

KSUA 040455Z AUTO 20003KT 10SM CLR 27/23 A2998 RMK AO2

4 Aug 2020 04:54

Phone: 772-692-7399

Other Area AWOS: KFPR - KVRB - KPBI - KOBE

TAF KSUA 032327Z 0400/0424 12010KT P6SM SCT040 BKN250 FM040200 21004KT P6SM FEW030 FM041400 20006KT P6SM SCT035 FM041800 13009KT P6SM VCTS SCT035CB SCT050 BKN250